createdAt,value
2022-08-02T00:01:34.350Z,102037.34
2022-08-02T00:04:07.065Z,102036.22
2022-08-02T00:06:37.163Z,102035.41
2022-08-02T00:09:07.261Z,102031.56
2022-08-02T00:11:36.276Z,102024.84
2022-08-02T00:14:03.464Z,102030.69
2022-08-02T00:16:38.117Z,102035.75
2022-08-02T00:19:25.157Z,102024.41
2022-08-02T00:21:54.768Z,102019.53
2022-08-02T00:24:29.274Z,102027.81
2022-08-02T00:27:20.217Z,102017.28
2022-08-02T00:29:52.769Z,102017.44
2022-08-02T00:32:20.496Z,102016.19
2022-08-02T00:34:47.121Z,102019.19
2022-08-02T00:37:16.867Z,102006.41
2022-08-02T00:39:51.615Z,102003.84
2022-08-02T00:42:18.264Z,101998.75
2022-08-02T00:44:44.839Z,102003.06
2022-08-02T00:47:11.552Z,101997.50
2022-08-02T00:49:45.778Z,102000.16
2022-08-02T00:52:13.659Z,101996.25
2022-08-02T00:54:40.593Z,101995.91
2022-08-02T00:57:16.425Z,101998.88
2022-08-02T00:59:43.038Z,101992.47
2022-08-02T01:02:10.081Z,101987.63
2022-08-02T01:04:42.466Z,101989.00
2022-08-02T01:07:13.262Z,101986.16
2022-08-02T01:09:46.488Z,101992.19
2022-08-02T01:12:14.363Z,102002.25
2022-08-02T01:14:44.597Z,101985.38
2022-08-02T01:17:34.693Z,101986.66
2022-08-02T01:20:36.181Z,101981.78
2022-08-02T01:23:22.531Z,101985.34
2022-08-02T01:26:29.629Z,101977.19
2022-08-02T01:40:04.697Z,101965.75
2022-08-02T01:42:52.603Z,101958.69
2022-08-02T01:45:22.536Z,101961.84
2022-08-02T01:47:50.559Z,101954.94
2022-08-02T01:50:21.793Z,101962.66
2022-08-02T01:52:53.513Z,101957.31
2022-08-02T01:55:33.480Z,101962.06
2022-08-02T01:58:32.626Z,101955.50
2022-08-02T02:01:00.865Z,101951.84
2022-08-02T02:03:33.723Z,101945.78
2022-08-02T02:09:00.352Z,101952.94
2022-08-02T02:12:12.171Z,101953.41
2022-08-02T02:14:15.157Z,101951.13
2022-08-02T02:16:49.709Z,101946.03
2022-08-02T02:22:12.051Z,101947.38
2022-08-02T02:24:47.501Z,101944.22
2022-08-02T02:27:17.765Z,101942.84
2022-08-02T02:29:50.780Z,101929.59
2022-08-02T02:32:22.687Z,101932.84
2022-08-02T02:34:54.130Z,101931.06
2022-08-02T02:37:23.437Z,101938.53
2022-08-02T02:39:52.338Z,101927.88
2022-08-02T02:42:27.496Z,101925.84
2022-08-02T02:44:55.354Z,101915.91
2022-08-02T02:47:23.305Z,101907.97
2022-08-02T02:50:18.518Z,101917.38
2022-08-02T02:52:46.560Z,101915.91
2022-08-02T02:55:14.060Z,101913.19
2022-08-02T02:57:44.013Z,101916.00
2022-08-02T03:00:40.001Z,101914.97
2022-08-02T03:06:59.574Z,101922.22
2022-08-02T03:09:38.927Z,101925.81
2022-08-02T03:21:57.191Z,101929.19
2022-08-02T03:25:09.083Z,101921.03
2022-08-02T03:27:33.807Z,101920.69
2022-08-02T03:30:11.895Z,101920.78
2022-08-02T03:32:40.847Z,101898.31
2022-08-02T03:35:11.281Z,101905.00
2022-08-02T03:37:41.707Z,101896.50
2022-08-02T03:43:05.143Z,101885.25
2022-08-02T03:45:33.018Z,101887.63
2022-08-02T03:48:01.794Z,101888.50
2022-08-02T03:50:56.331Z,101881.47
2022-08-02T03:53:26.030Z,101882.25
2022-08-02T03:55:55.840Z,101876.47
2022-08-02T03:58:34.332Z,101877.03
2022-08-02T04:01:06.100Z,101881.75
2022-08-02T04:06:40.243Z,101893.53
2022-08-02T04:09:09.755Z,101889.66
2022-08-02T04:11:37.925Z,101875.50
2022-08-02T04:14:11.198Z,101884.03
2022-08-02T04:16:59.518Z,101883.69
2022-08-02T04:19:55.160Z,101880.63
2022-08-02T04:22:57.896Z,101889.22
2022-08-02T04:29:21.888Z,101880.19
2022-08-02T04:41:44.269Z,101894.47
2022-08-02T05:28:27.680Z,101854.00
2022-08-02T05:34:09.915Z,101855.88
2022-08-02T05:40:55.010Z,101870.09
2022-08-02T05:43:54.215Z,101858.78
2022-08-02T05:46:54.580Z,101858.84
2022-08-02T05:49:21.412Z,101862.44
2022-08-02T05:52:29.083Z,101865.56
2022-08-02T05:55:34.634Z,101869.81
2022-08-02T06:01:43.012Z,101876.72
2022-08-02T06:04:34.462Z,101864.44
2022-08-02T06:08:12.727Z,101862.28
2022-08-02T06:15:04.657Z,101856.75
2022-08-02T06:18:01.641Z,101840.69
2022-08-02T06:24:15.283Z,101843.53
2022-08-02T06:26:46.886Z,101833.34
2022-08-02T06:29:17.215Z,101828.19
2022-08-02T06:31:45.253Z,101838.06
2022-08-02T06:34:11.845Z,101853.50
2022-08-02T06:36:46.460Z,101866.19
2022-08-02T06:39:20.839Z,101858.75
2022-08-02T06:41:51.739Z,101847.53
2022-08-02T06:47:10.914Z,101838.56
2022-08-02T06:49:51.941Z,101834.97
2022-08-02T06:52:30.291Z,101827.94
2022-08-02T06:55:02.026Z,101823.88
2022-08-02T06:57:29.101Z,101818.69
2022-08-02T06:59:55.992Z,101816.50
2022-08-02T07:02:23.286Z,101806.72
2022-08-02T07:04:50.183Z,101812.81
2022-08-02T07:07:16.876Z,101803.81
2022-08-02T07:10:00.501Z,101799.34
2022-08-02T07:12:32.984Z,101807.31
2022-08-02T07:15:04.993Z,101811.09
2022-08-02T07:17:32.184Z,101810.91
2022-08-02T07:19:59.308Z,101811.56
2022-08-02T07:22:27.556Z,101810.25
2022-08-02T07:24:56.173Z,101816.34
2022-08-02T07:27:23.260Z,101807.97
2022-08-02T07:29:49.854Z,101807.81
2022-08-02T07:32:17.761Z,101808.88
2022-08-02T07:34:50.455Z,101802.91
2022-08-02T07:37:55.078Z,101805.72
2022-08-02T07:40:33.769Z,101813.53
2022-08-02T07:43:03.942Z,101791.44
2022-08-02T07:45:55.726Z,101797.19
2022-08-02T07:48:44.056Z,101792.25
2022-08-02T07:51:17.532Z,101795.25
2022-08-02T07:54:18.347Z,101792.47
2022-08-02T07:57:26.513Z,101787.16
2022-08-02T08:09:45.394Z,101783.56
2022-08-02T08:15:23.424Z,101783.47
2022-08-02T08:21:07.607Z,101775.22
2022-08-02T08:26:21.045Z,101778.03
2022-08-02T08:28:53.584Z,101783.19
2022-08-02T08:31:20.035Z,101778.84
2022-08-02T08:33:46.578Z,101778.06
2022-08-02T08:36:13.566Z,101773.69
2022-08-02T08:38:46.170Z,101778.03
2022-08-02T08:41:16.883Z,101774.19
2022-08-02T08:43:44.054Z,101776.06
2022-08-02T08:46:31.238Z,101769.13
2022-08-02T08:49:12.284Z,101782.66
2022-08-02T08:51:44.633Z,101774.25
2022-08-02T08:54:17.007Z,101767.47
2022-08-02T08:56:49.995Z,101772.28
2022-08-02T08:59:16.735Z,101765.25
2022-08-02T09:01:49.777Z,101766.50
2022-08-02T09:04:23.333Z,101769.97
2022-08-02T09:06:50.773Z,101773.22
2022-08-02T09:09:46.613Z,101772.91
2022-08-02T09:12:17.937Z,101769.53
2022-08-02T09:14:46.462Z,101778.28
2022-08-02T09:17:17.311Z,101775.13
2022-08-02T09:19:46.213Z,101777.19
2022-08-02T09:22:14.620Z,101774.69
2022-08-02T09:24:54.781Z,101766.59
2022-08-02T09:27:39.476Z,101778.34
2022-08-02T09:30:14.183Z,101771.84
2022-08-02T09:32:50.072Z,101765.53
2022-08-02T09:36:05.908Z,101769.03
2022-08-02T09:38:21.142Z,101770.97
2022-08-02T09:40:47.592Z,101767.63
2022-08-02T09:43:14.387Z,101774.94
2022-08-02T09:45:41.017Z,101786.09
2022-08-02T09:48:09.121Z,101784.22
2022-08-02T09:50:42.033Z,101779.94
2022-08-02T09:53:13.896Z,101785.31
2022-08-02T09:55:41.718Z,101775.88
2022-08-02T09:58:19.437Z,101785.47
2022-08-02T10:00:54.889Z,101770.72
2022-08-02T10:03:22.804Z,101780.44
2022-08-02T10:05:56.112Z,101786.84
2022-08-02T10:08:29.691Z,101781.13
2022-08-02T10:11:01.915Z,101779.16
2022-08-02T10:13:33.141Z,101771.25
2022-08-02T10:15:59.673Z,101779.66
2022-08-02T10:18:38.637Z,101780.84
2022-08-02T10:21:14.983Z,101780.22
2022-08-02T10:23:45.293Z,101784.84
2022-08-02T10:26:18.010Z,101786.75
2022-08-02T10:28:47.599Z,101776.59
2022-08-02T10:31:19.029Z,101775.44
2022-08-02T10:33:50.348Z,101767.22
2022-08-02T10:36:18.167Z,101755.94
2022-08-02T10:38:46.823Z,101755.22
2022-08-02T10:41:13.477Z,101760.19
2022-08-02T10:43:43.298Z,101760.81
2022-08-02T10:46:37.446Z,101757.84
2022-08-02T10:49:38.492Z,101762.84
2022-08-02T10:52:02.553Z,101761.44
2022-08-02T10:54:33.405Z,101761.41
2022-08-02T10:57:17.773Z,101751.00
2022-08-02T10:59:48.189Z,101745.09
2022-08-02T11:02:33.973Z,101745.44
2022-08-02T11:05:02.726Z,101750.25
2022-08-02T11:07:33.481Z,101746.03
2022-08-02T11:10:19.921Z,101744.50
2022-08-02T11:13:17.467Z,101747.63
2022-08-02T11:15:50.903Z,101745.31
2022-08-02T11:18:18.241Z,101732.28
2022-08-02T11:20:44.919Z,101731.00
2022-08-02T11:23:45.298Z,101734.09
2022-08-02T11:26:30.650Z,101738.84
2022-08-02T11:28:58.773Z,101743.25
2022-08-02T11:31:25.695Z,101741.88
2022-08-02T11:33:52.550Z,101744.69
2022-08-02T11:36:38.407Z,101738.19
2022-08-02T11:39:13.193Z,101747.63
2022-08-02T11:41:46.944Z,101743.59
2022-08-02T11:44:14.304Z,101742.00
2022-08-02T11:46:41.168Z,101743.63
2022-08-02T11:49:18.686Z,101736.22
2022-08-02T11:51:59.585Z,101744.22
2022-08-02T11:54:29.187Z,101745.34
2022-08-02T11:56:55.828Z,101732.91
2022-08-02T11:59:22.311Z,101731.75
2022-08-02T12:01:49.117Z,101727.72
2022-08-02T12:04:18.535Z,101722.88
2022-08-02T12:06:54.649Z,101722.16
2022-08-02T12:09:22.915Z,101728.50
2022-08-02T12:11:50.899Z,101721.44
2022-08-02T12:14:17.650Z,101724.34
2022-08-02T12:17:02.891Z,101723.72
2022-08-02T12:19:29.701Z,101718.47
2022-08-02T12:22:24.437Z,101716.59
2022-08-02T12:24:56.589Z,101719.84
2022-08-02T12:27:34.802Z,101725.00
2022-08-02T12:30:05.608Z,101716.59
2022-08-02T12:32:32.514Z,101718.47
2022-08-02T12:35:08.434Z,101731.34
2022-08-02T12:37:36.087Z,101720.00
2022-08-02T12:40:31.623Z,101722.47
2022-08-02T12:43:03.687Z,101720.91
2022-08-02T12:45:56.670Z,101718.41
2022-08-02T12:48:38.608Z,101733.06
2022-08-02T12:51:24.543Z,101718.59
2022-08-02T12:53:59.660Z,101719.56
2022-08-02T12:56:31.672Z,101721.50
2022-08-02T12:58:58.533Z,101713.16
2022-08-02T13:01:27.920Z,101706.88
2022-08-02T13:04:10.125Z,101714.19
2022-08-02T13:06:43.966Z,101722.44
2022-08-02T13:09:16.352Z,101712.16
2022-08-02T13:11:44.185Z,101707.44
2022-08-02T13:14:12.225Z,101717.25
2022-08-02T13:16:38.978Z,101713.97
2022-08-02T13:19:05.750Z,101708.03
2022-08-02T13:21:40.324Z,101698.91
2022-08-02T13:24:23.279Z,101712.53
2022-08-02T13:26:55.215Z,101700.56
2022-08-02T13:29:21.721Z,101691.41
2022-08-02T13:34:40.244Z,101688.03
2022-08-02T13:37:06.737Z,101695.41
2022-08-02T13:39:33.283Z,101694.88
2022-08-02T13:41:59.872Z,101693.16
2022-08-02T13:44:26.328Z,101695.69
2022-08-02T13:46:53.001Z,101684.69
2022-08-02T13:49:21.823Z,101688.03
2022-08-02T13:51:48.665Z,101677.94
2022-08-02T13:54:16.097Z,101675.47
2022-08-02T13:56:42.574Z,101675.59
2022-08-02T13:59:26.283Z,101660.53
2022-08-02T14:01:56.873Z,101659.31
2022-08-02T14:04:24.580Z,101660.78
2022-08-02T14:06:51.550Z,101656.31
2022-08-02T14:09:18.028Z,101647.03
2022-08-02T14:11:46.104Z,101656.94
2022-08-02T14:14:16.401Z,101660.63
2022-08-02T14:16:44.313Z,101655.41
2022-08-02T14:19:24.561Z,101660.06
2022-08-02T14:21:51.640Z,101673.81
2022-08-02T14:24:20.262Z,101653.91
2022-08-02T14:26:48.192Z,101647.50
2022-08-02T14:29:15.849Z,101658.88
2022-08-02T14:31:44.848Z,101656.75
2022-08-02T14:34:14.447Z,101649.47
2022-08-02T14:36:41.172Z,101647.31
2022-08-02T14:39:07.732Z,101651.34
2022-08-02T14:41:58.934Z,101638.59
2022-08-02T14:44:23.302Z,101639.41
2022-08-02T14:46:51.611Z,101641.72
2022-08-02T14:49:25.516Z,101636.25
2022-08-02T14:51:56.896Z,101631.91
2022-08-02T14:54:30.995Z,101634.06
2022-08-02T14:57:01.697Z,101618.94
2022-08-02T14:59:29.095Z,101617.66
2022-08-02T15:02:04.675Z,101628.69
2022-08-02T15:04:42.696Z,101616.28
2022-08-02T15:07:10.095Z,101616.25
2022-08-02T15:09:39.694Z,101611.59
2022-08-02T15:12:09.771Z,101621.41
2022-08-02T15:14:36.689Z,101609.13
2022-08-02T15:17:04.050Z,101604.00
2022-08-02T15:19:55.999Z,101597.69
2022-08-02T15:22:19.055Z,101598.63
2022-08-02T15:24:46.612Z,101599.19
2022-08-02T15:27:14.571Z,101601.59
2022-08-02T15:29:42.551Z,101604.22
2022-08-02T15:32:09.607Z,101602.34
2022-08-02T15:34:36.522Z,101601.13
2022-08-02T15:37:03.032Z,101608.09
2022-08-02T15:39:30.166Z,101609.34
2022-08-02T15:41:57.304Z,101609.22
2022-08-02T15:44:24.826Z,101607.81
2022-08-02T15:46:51.792Z,101603.38
2022-08-02T15:49:20.427Z,101595.34
2022-08-02T15:51:47.033Z,101600.88
2022-08-02T15:54:13.735Z,101593.47
2022-08-02T15:56:40.484Z,101591.38
2022-08-02T15:59:07.038Z,101594.53
2022-08-02T16:01:38.396Z,101599.28
2022-08-02T16:04:11.640Z,101595.59
2022-08-02T16:06:38.091Z,101588.53
2022-08-02T16:09:04.838Z,101589.34
2022-08-02T16:11:31.353Z,101586.56
2022-08-02T16:13:59.223Z,101578.19
2022-08-02T16:16:28.820Z,101583.28
2022-08-02T16:18:55.988Z,101579.75
2022-08-02T16:21:24.505Z,101579.28
2022-08-02T16:24:01.715Z,101577.22
2022-08-02T16:26:30.974Z,101568.22
2022-08-02T16:28:57.905Z,101568.56
2022-08-02T16:31:24.520Z,101569.97
2022-08-02T16:33:56.481Z,101573.22
2022-08-02T16:36:24.444Z,101577.72
2022-08-02T16:38:51.447Z,101576.00
2022-08-02T16:41:18.921Z,101579.13
2022-08-02T16:43:45.461Z,101581.28
2022-08-02T16:46:11.962Z,101581.75
2022-08-02T16:48:39.094Z,101573.88
2022-08-02T16:51:13.780Z,101581.88
2022-08-02T16:53:59.968Z,101577.56
2022-08-02T16:56:28.408Z,101575.09
2022-08-02T16:58:55.293Z,101568.75
2022-08-02T17:01:27.544Z,101562.53
2022-08-02T17:03:56.065Z,101569.50
2022-08-02T17:06:26.149Z,101576.28
2022-08-02T17:08:54.538Z,101570.56
2022-08-02T17:11:24.633Z,101570.59
2022-08-02T17:13:51.772Z,101564.56
2022-08-02T17:16:25.391Z,101556.31
2022-08-02T17:18:53.897Z,101555.25
2022-08-02T17:21:20.581Z,101562.50
2022-08-02T17:24:05.062Z,101564.22
2022-08-02T17:26:36.382Z,101560.22
2022-08-02T17:29:16.318Z,101557.72
2022-08-02T17:32:05.633Z,101563.31
2022-08-02T17:34:35.709Z,101569.34
2022-08-02T17:37:05.715Z,101570.75
2022-08-02T17:39:34.282Z,101560.69
2022-08-02T17:42:09.981Z,101564.41
2022-08-02T17:44:42.090Z,101562.88
2022-08-02T17:47:12.013Z,101550.94
2022-08-02T17:49:43.866Z,101563.63
2022-08-02T17:52:50.345Z,101565.03
2022-08-02T17:55:03.475Z,101555.25
2022-08-02T17:57:55.813Z,101566.38
2022-08-02T18:00:17.387Z,101563.44
2022-08-02T18:02:43.992Z,101565.13
2022-08-02T18:05:20.383Z,101567.13
2022-08-02T18:07:55.342Z,101579.94
2022-08-02T18:10:24.896Z,101570.47
2022-08-02T18:12:53.634Z,101569.03
2022-08-02T18:15:23.120Z,101580.47
2022-08-02T18:17:49.620Z,101578.28
2022-08-02T18:20:16.943Z,101574.31
2022-08-02T18:22:44.960Z,101569.88
2022-08-02T18:25:18.402Z,101573.19
2022-08-02T18:27:58.621Z,101571.78
2022-08-02T18:30:28.603Z,101573.38
2022-08-02T18:33:54.329Z,101580.09
2022-08-02T18:35:43.731Z,101581.69
2022-08-02T18:38:11.862Z,101571.41
2022-08-02T18:40:38.705Z,101579.53
2022-08-02T18:43:07.135Z,101574.91
2022-08-02T18:46:04.520Z,101569.41
2022-08-02T18:48:22.746Z,101579.31
2022-08-02T18:50:55.204Z,101578.25
2022-08-02T18:53:39.536Z,101582.78
2022-08-02T18:56:19.582Z,101580.81
2022-08-02T18:58:51.000Z,101578.25
2022-08-02T19:01:31.468Z,101572.81
2022-08-02T19:03:59.950Z,101587.56
2022-08-02T19:06:29.043Z,101583.56
2022-08-02T19:09:05.334Z,101577.91
2022-08-02T19:11:40.883Z,101585.75
2022-08-02T19:14:08.052Z,101585.31
2022-08-02T19:16:36.729Z,101580.38
2022-08-02T19:19:04.844Z,101587.44
2022-08-02T19:22:26.806Z,101584.09
2022-08-02T19:24:17.820Z,101580.31
2022-08-02T19:26:51.656Z,101587.94
2022-08-02T19:29:42.320Z,101584.06
2022-08-02T19:32:42.238Z,101585.22
2022-08-02T19:34:53.373Z,101582.44
2022-08-02T19:37:19.825Z,101584.63
2022-08-02T19:39:46.407Z,101584.47
2022-08-02T19:42:14.864Z,101589.81
2022-08-02T19:44:48.893Z,101589.56
2022-08-02T19:47:19.290Z,101584.03
2022-08-02T19:49:48.784Z,101591.66
2022-08-02T19:52:20.860Z,101605.66
2022-08-02T19:54:55.721Z,101597.88
2022-08-02T19:57:25.201Z,101604.81
2022-08-02T19:59:52.305Z,101607.03
2022-08-02T20:02:19.474Z,101607.16
2022-08-02T20:04:50.379Z,101602.41
2022-08-02T20:07:49.856Z,101600.94
2022-08-02T20:10:10.889Z,101600.47
2022-08-02T20:12:39.693Z,101607.09
2022-08-02T20:15:14.769Z,101611.13
2022-08-02T20:17:47.472Z,101607.75
2022-08-02T20:20:15.950Z,101611.16
2022-08-02T20:23:00.771Z,101605.06
2022-08-02T20:25:37.600Z,101608.75
2022-08-02T20:28:12.841Z,101610.16
2022-08-02T20:30:40.179Z,101610.28
2022-08-02T20:33:22.102Z,101612.06
2022-08-02T20:35:55.968Z,101616.78
2022-08-02T20:38:25.084Z,101609.84
2022-08-02T20:40:56.455Z,101610.00
2022-08-02T20:43:31.505Z,101611.59
2022-08-02T20:46:02.424Z,101612.41
2022-08-02T20:48:30.344Z,101608.19
2022-08-02T20:50:57.788Z,101608.22
2022-08-02T20:53:26.065Z,101603.13
2022-08-02T20:55:56.950Z,101609.06
2022-08-02T20:58:26.476Z,101603.56
2022-08-02T21:00:58.785Z,101601.28
2022-08-02T21:06:14.846Z,101603.50
2022-08-02T21:08:42.132Z,101601.66
2022-08-02T21:11:14.101Z,101595.91
2022-08-02T21:13:47.119Z,101602.41
2022-08-02T21:16:27.707Z,101602.94
2022-08-02T21:19:00.281Z,101614.78
2022-08-02T21:21:27.376Z,101611.31
2022-08-02T21:23:54.988Z,101614.78
2022-08-02T21:26:27.801Z,101605.78
2022-08-02T21:28:55.633Z,101618.81
2022-08-02T21:31:22.239Z,101611.38
2022-08-02T21:33:58.195Z,101607.50
2022-08-02T21:36:32.605Z,101606.69
2022-08-02T21:39:08.036Z,101608.72
2022-08-02T21:41:46.603Z,101605.00
2022-08-02T21:44:19.404Z,101607.16
2022-08-02T21:46:49.254Z,101607.22
2022-08-02T21:49:16.951Z,101602.94
2022-08-02T21:51:43.739Z,101597.16
2022-08-02T21:54:19.999Z,101595.59
2022-08-02T21:56:52.091Z,101600.75
2022-08-02T21:59:26.356Z,101598.78
2022-08-02T22:04:23.675Z,101599.59
2022-08-02T22:06:50.156Z,101603.59
2022-08-02T22:09:44.045Z,101602.91
2022-08-02T22:12:06.466Z,101606.47
2022-08-02T22:14:36.856Z,101611.63
2022-08-02T22:17:08.665Z,101602.19
2022-08-02T22:19:36.059Z,101612.06
2022-08-02T22:22:02.472Z,101606.59
2022-08-02T22:24:29.877Z,101614.06
2022-08-02T22:26:57.155Z,101607.81
2022-08-02T22:29:23.632Z,101613.41
2022-08-02T22:31:50.302Z,101606.75
2022-08-02T22:34:36.640Z,101612.66
2022-08-02T22:37:05.753Z,101616.22
2022-08-02T22:39:32.577Z,101615.03
2022-08-02T22:42:06.302Z,101618.19
2022-08-02T22:44:34.072Z,101613.53
2022-08-02T22:47:06.897Z,101616.69
2022-08-02T22:49:38.138Z,101614.75
2022-08-02T22:52:12.275Z,101621.84
2022-08-02T22:54:40.737Z,101625.00
2022-08-02T22:57:11.480Z,101626.94
2022-08-02T22:59:08.420Z,101603.25
2022-08-02T22:59:39.678Z,101621.00
2022-08-02T23:02:06.985Z,101627.72
2022-08-02T23:04:33.684Z,101624.97
2022-08-02T23:07:00.149Z,101624.59
2022-08-02T23:09:26.611Z,101618.75
2022-08-02T23:11:53.084Z,101613.66
2022-08-02T23:14:19.905Z,101619.19
2022-08-02T23:17:04.902Z,101620.75
2022-08-02T23:19:50.104Z,101618.81
2022-08-02T23:22:17.869Z,101618.44
2022-08-02T23:24:45.529Z,101617.69
2022-08-02T23:27:12.107Z,101618.13
2022-08-02T23:29:38.922Z,101614.22
2022-08-02T23:32:05.456Z,101610.69
2022-08-02T23:34:33.276Z,101610.69
2022-08-02T23:37:00.223Z,101619.34
2022-08-02T23:39:26.936Z,101621.75
2022-08-02T23:41:54.899Z,101614.28
2022-08-02T23:44:22.611Z,101615.88
2022-08-02T23:46:49.208Z,101608.81
2022-08-02T23:49:16.701Z,101608.44
2022-08-02T23:51:43.800Z,101600.59
2022-08-02T23:54:11.281Z,101603.72
2022-08-02T23:56:38.826Z,101604.53
2022-08-02T23:59:06.561Z,101598.25
